createdAt,value
2019-03-31T00:00:41.884Z,6.40
2019-03-31T00:03:11.440Z,5.60
2019-03-31T00:05:42.505Z,6.70
2019-03-31T00:08:31.946Z,8.43
2019-03-31T00:11:01.383Z,7.23
2019-03-31T00:13:30.882Z,9.37
2019-03-31T00:16:00.392Z,6.67
2019-03-31T00:18:30.245Z,7.17
2019-03-31T00:20:59.722Z,5.80
2019-03-31T00:23:29.412Z,6.77
2019-03-31T00:26:18.155Z,7.07
2019-03-31T00:28:49.167Z,7.47
2019-03-31T00:31:22.279Z,9.10
2019-03-31T00:33:51.375Z,6.77
2019-03-31T00:36:20.888Z,7.30
2019-03-31T00:38:50.361Z,5.83
2019-03-31T00:41:19.818Z,6.73
2019-03-31T00:43:49.343Z,7.60
2019-03-31T00:46:18.788Z,8.13
2019-03-31T00:48:48.264Z,7.37
2019-03-31T00:51:17.751Z,10.30
2019-03-31T00:53:47.207Z,8.13
2019-03-31T00:56:16.712Z,7.67
2019-03-31T00:58:46.245Z,10.07
2019-03-31T01:04:04.293Z,5.80
2019-03-31T01:06:34.252Z,6.77
2019-03-31T01:09:08.773Z,6.00
2019-03-31T01:11:57.449Z,7.17
2019-03-31T01:14:28.309Z,6.07
2019-03-31T01:16:58.800Z,6.70
2019-03-31T01:19:28.878Z,7.23
2019-03-31T01:21:58.564Z,8.17
2019-03-31T01:24:28.400Z,8.77
2019-03-31T01:26:58.131Z,6.50
2019-03-31T01:29:27.820Z,8.77
2019-03-31T01:32:16.656Z,7.90
2019-03-31T01:34:46.469Z,7.90
2019-03-31T01:37:16.364Z,7.03
2019-03-31T01:39:46.461Z,7.13
2019-03-31T01:42:35.349Z,7.50
2019-03-31T01:45:07.462Z,6.33
2019-03-31T01:47:36.991Z,7.80
2019-03-31T01:50:14.383Z,5.83
2019-03-31T01:52:43.731Z,5.90
2019-03-31T01:55:13.522Z,6.47
2019-03-31T01:57:43.932Z,6.20
2019-03-31T02:00:15.825Z,5.90
2019-03-31T02:02:45.452Z,6.03
2019-03-31T02:05:15.375Z,9.33
2019-03-31T02:07:44.848Z,6.30
2019-03-31T02:10:14.743Z,6.57
2019-03-31T02:12:45.843Z,6.07
2019-03-31T02:15:15.500Z,6.50
2019-03-31T02:17:47.737Z,6.60
2019-03-31T02:20:17.598Z,7.17
2019-03-31T02:22:50.752Z,5.37
2019-03-31T02:25:20.226Z,6.77
2019-03-31T02:27:49.764Z,7.73
2019-03-31T02:30:22.191Z,6.33
2019-03-31T02:32:51.676Z,6.97
2019-03-31T02:35:21.316Z,6.33
2019-03-31T02:38:10.106Z,6.53
2019-03-31T02:40:39.597Z,7.50
2019-03-31T02:43:10.703Z,7.60
2019-03-31T02:45:41.669Z,8.10
2019-03-31T02:48:11.199Z,8.07
2019-03-31T02:50:45.228Z,8.27
2019-03-31T02:53:16.310Z,6.53
2019-03-31T02:55:46.584Z,7.40
2019-03-31T02:58:17.978Z,5.97
2019-03-31T03:00:48.247Z,8.30
2019-03-31T03:03:19.350Z,8.40
2019-03-31T03:05:49.909Z,6.40
2019-03-31T03:08:20.329Z,6.60
2019-03-31T03:10:51.844Z,8.90
2019-03-31T03:13:25.665Z,9.43
2019-03-31T03:18:34.121Z,6.77
2019-03-31T03:21:03.581Z,7.00
2019-03-31T03:23:33.043Z,6.10
2019-03-31T03:26:02.533Z,9.43
2019-03-31T03:28:32.174Z,7.53
2019-03-31T03:31:01.713Z,7.17
2019-03-31T03:33:31.564Z,6.10
2019-03-31T03:36:01.041Z,7.27
2019-03-31T03:38:30.484Z,7.20
2019-03-31T03:41:00.019Z,6.93
2019-03-31T03:43:29.518Z,7.67
2019-03-31T03:45:59.055Z,6.33
2019-03-31T03:48:28.529Z,7.87
2019-03-31T03:50:58.007Z,7.10
2019-03-31T03:53:27.718Z,6.70
2019-03-31T03:55:57.251Z,7.10
2019-03-31T03:58:26.732Z,7.67
2019-03-31T04:00:56.205Z,6.67
2019-03-31T04:03:30.701Z,8.70
2019-03-31T04:05:56.917Z,8.67
2019-03-31T04:08:26.506Z,7.00
2019-03-31T04:13:34.653Z,7.63
2019-03-31T04:16:04.195Z,7.97
2019-03-31T04:18:33.684Z,7.13
2019-03-31T04:21:22.608Z,6.00
2019-03-31T04:23:52.106Z,5.97
2019-03-31T04:26:21.564Z,6.57
2019-03-31T04:28:51.347Z,6.53
2019-03-31T04:31:20.800Z,6.33
2019-03-31T04:33:52.871Z,9.27
2019-03-31T04:36:23.155Z,5.97
2019-03-31T04:38:52.775Z,8.67
2019-03-31T04:41:22.221Z,6.30
2019-03-31T04:43:51.819Z,9.20
2019-03-31T04:46:21.320Z,7.30
2019-03-31T04:48:50.794Z,7.30
2019-03-31T04:51:20.269Z,6.43
2019-03-31T04:53:49.819Z,6.13
2019-03-31T04:56:19.263Z,7.37
2019-03-31T04:58:48.785Z,8.47
2019-03-31T05:01:18.267Z,6.43
2019-03-31T05:03:47.783Z,7.30
2019-03-31T05:06:17.380Z,7.90
2019-03-31T05:08:46.839Z,8.37
2019-03-31T05:11:16.332Z,7.40
2019-03-31T05:13:46.068Z,7.87
2019-03-31T05:16:15.724Z,8.30
2019-03-31T05:18:45.180Z,7.37
2019-03-31T05:21:14.934Z,8.53
2019-03-31T05:23:44.396Z,7.23
2019-03-31T05:26:13.882Z,6.40
2019-03-31T05:28:44.263Z,6.70
2019-03-31T05:31:13.935Z,6.53
2019-03-31T05:33:44.911Z,7.63
2019-03-31T05:36:14.498Z,8.13
2019-03-31T05:38:43.972Z,8.97
2019-03-31T05:41:13.499Z,7.73
2019-03-31T05:43:43.030Z,7.80
2019-03-31T05:46:12.521Z,6.93
2019-03-31T05:48:41.989Z,7.77
2019-03-31T05:51:11.756Z,8.83
2019-03-31T05:53:41.219Z,6.33
2019-03-31T05:56:10.676Z,6.30
2019-03-31T05:58:40.165Z,7.87
2019-03-31T06:01:09.638Z,6.50
2019-03-31T06:03:39.117Z,8.97
2019-03-31T06:06:08.622Z,9.70
2019-03-31T06:08:38.084Z,8.40
2019-03-31T06:11:07.566Z,8.10
2019-03-31T06:13:37.094Z,6.60
2019-03-31T06:16:06.642Z,10.23
2019-03-31T06:18:39.163Z,7.57
2019-03-31T06:21:08.685Z,7.67
2019-03-31T06:23:38.136Z,5.50
2019-03-31T06:26:07.593Z,7.40
2019-03-31T06:28:37.101Z,7.33
2019-03-31T06:31:06.561Z,6.50
2019-03-31T06:33:36.018Z,6.83
2019-03-31T06:36:05.529Z,7.97
2019-03-31T06:38:35.025Z,5.93
2019-03-31T06:41:04.690Z,5.30
2019-03-31T06:43:34.227Z,5.80
2019-03-31T06:46:04.045Z,6.20
2019-03-31T06:48:33.516Z,4.45
2019-03-31T06:51:03.223Z,7.67
2019-03-31T06:53:32.717Z,4.83
2019-03-31T06:56:02.198Z,4.70
2019-03-31T06:58:35.092Z,8.03
2019-03-31T07:01:04.609Z,4.62
2019-03-31T07:03:34.097Z,4.25
2019-03-31T07:06:03.575Z,4.62
2019-03-31T07:08:33.116Z,4.83
2019-03-31T07:11:02.608Z,8.55
2019-03-31T07:13:32.111Z,4.28
2019-03-31T07:16:01.633Z,8.15
2019-03-31T07:18:43.471Z,5.80
2019-03-31T07:21:12.962Z,8.00
2019-03-31T07:23:42.427Z,6.58
2019-03-31T07:26:13.448Z,5.58
2019-03-31T07:28:42.942Z,5.85
2019-03-31T07:31:12.423Z,5.58
2019-03-31T07:33:41.932Z,5.53
2019-03-31T07:36:11.424Z,5.05
2019-03-31T07:38:40.929Z,4.58
2019-03-31T07:41:29.777Z,4.60
2019-03-31T07:43:59.263Z,4.70
2019-03-31T07:46:28.779Z,5.28
2019-03-31T07:49:17.612Z,4.80
2019-03-31T07:51:47.081Z,5.92
2019-03-31T07:54:19.360Z,7.17
2019-03-31T07:56:48.909Z,5.58
2019-03-31T07:59:26.372Z,4.95
2019-03-31T08:01:55.845Z,4.45
2019-03-31T08:04:25.305Z,6.15
2019-03-31T08:06:55.042Z,4.80
2019-03-31T08:09:24.567Z,5.30
2019-03-31T08:11:54.050Z,5.17
2019-03-31T08:14:23.539Z,4.92
2019-03-31T08:16:53.088Z,5.00
2019-03-31T08:19:22.651Z,4.80
2019-03-31T08:21:52.152Z,5.37
2019-03-31T08:24:21.658Z,6.33
2019-03-31T08:27:11.458Z,5.85
2019-03-31T08:29:42.501Z,7.62
2019-03-31T08:32:12.842Z,5.75
2019-03-31T08:34:42.547Z,7.10
2019-03-31T08:37:19.196Z,7.28
2019-03-31T08:39:48.652Z,6.78
2019-03-31T08:42:18.152Z,8.63
2019-03-31T08:44:47.647Z,7.95
2019-03-31T08:47:17.121Z,7.35
2019-03-31T08:49:46.620Z,8.88
2019-03-31T08:52:22.147Z,9.28
2019-03-31T08:54:51.657Z,8.48
2019-03-31T08:57:21.127Z,8.25
2019-03-31T08:59:50.770Z,9.23
2019-03-31T09:02:22.109Z,8.38
2019-03-31T09:04:51.652Z,8.20
2019-03-31T09:07:21.125Z,7.65
2019-03-31T09:09:50.635Z,7.58
2019-03-31T09:12:20.100Z,8.50
2019-03-31T09:14:49.951Z,8.75
2019-03-31T09:17:19.468Z,9.50
2019-03-31T09:19:48.981Z,11.90
2019-03-31T09:22:18.492Z,10.85
2019-03-31T09:24:47.963Z,12.65
2019-03-31T09:27:36.790Z,10.53
2019-03-31T09:30:10.690Z,12.45
2019-03-31T09:32:40.206Z,11.35
2019-03-31T09:35:10.957Z,10.80
2019-03-31T09:37:40.596Z,11.33
2019-03-31T09:40:12.365Z,12.55
2019-03-31T09:42:41.874Z,9.78
2019-03-31T09:45:12.176Z,8.00
2019-03-31T09:47:41.805Z,9.43
2019-03-31T09:50:17.176Z,10.25
2019-03-31T09:52:45.529Z,8.53
2019-03-31T09:55:15.506Z,6.72
2019-03-31T09:57:45.077Z,7.42
2019-03-31T10:00:36.834Z,5.97
2019-03-31T10:03:06.380Z,6.95
2019-03-31T10:05:35.879Z,7.15
2019-03-31T10:08:05.417Z,7.53
2019-03-31T10:10:35.669Z,8.68
2019-03-31T10:13:05.241Z,8.15
2019-03-31T10:15:34.738Z,6.40
2019-03-31T10:18:05.912Z,6.67
2019-03-31T10:20:37.278Z,8.08
2019-03-31T10:23:06.794Z,7.15
2019-03-31T10:25:36.611Z,7.95
2019-03-31T10:28:25.398Z,10.43
2019-03-31T10:30:54.918Z,8.30
2019-03-31T10:33:24.378Z,6.92
2019-03-31T10:35:53.898Z,5.53
2019-03-31T10:38:23.388Z,6.85
2019-03-31T10:40:52.897Z,6.45
2019-03-31T10:43:22.363Z,6.28
2019-03-31T10:45:52.314Z,7.08
2019-03-31T10:48:21.782Z,6.75
2019-03-31T10:50:51.326Z,5.58
2019-03-31T10:53:21.406Z,6.97
2019-03-31T10:55:50.884Z,4.20
2019-03-31T10:58:20.340Z,6.83
2019-03-31T11:00:49.841Z,7.05
2019-03-31T11:03:19.309Z,5.55
2019-03-31T11:05:48.788Z,4.60
2019-03-31T11:08:18.288Z,6.30
2019-03-31T11:10:47.788Z,4.90
2019-03-31T11:13:17.279Z,6.78
2019-03-31T11:15:46.885Z,6.40
2019-03-31T11:18:16.374Z,5.05
2019-03-31T11:20:46.295Z,6.33
2019-03-31T11:23:17.397Z,6.37
2019-03-31T11:25:47.107Z,4.62
2019-03-31T11:28:36.224Z,4.78
2019-03-31T11:31:05.712Z,5.20
2019-03-31T11:33:35.180Z,5.75
2019-03-31T11:36:04.753Z,6.20
2019-03-31T11:38:34.246Z,8.28
2019-03-31T11:41:03.709Z,6.47
2019-03-31T11:43:33.236Z,6.95
2019-03-31T11:46:02.692Z,5.92
2019-03-31T11:48:32.159Z,6.42
2019-03-31T11:51:01.678Z,5.60
2019-03-31T11:53:31.131Z,6.15
2019-03-31T11:56:03.983Z,6.28
2019-03-31T11:58:33.483Z,6.42
2019-03-31T12:01:03.337Z,6.55
2019-03-31T12:03:32.800Z,5.58
2019-03-31T12:06:02.382Z,8.45
2019-03-31T12:08:35.534Z,7.12
2019-03-31T12:11:05.348Z,5.67
2019-03-31T12:13:37.597Z,6.20
2019-03-31T12:16:07.090Z,8.00
2019-03-31T12:18:36.556Z,7.87
2019-03-31T12:21:06.206Z,6.78
2019-03-31T12:23:35.666Z,7.70
2019-03-31T12:26:07.959Z,6.67
2019-03-31T12:28:37.446Z,7.75
2019-03-31T12:31:09.909Z,7.42
2019-03-31T12:33:39.382Z,7.42
2019-03-31T12:36:10.426Z,7.60
2019-03-31T12:38:41.409Z,7.78
2019-03-31T12:41:10.924Z,8.10
2019-03-31T12:43:40.427Z,7.35
2019-03-31T12:46:12.653Z,7.45
2019-03-31T12:48:42.183Z,6.65
2019-03-31T12:51:11.714Z,9.20
2019-03-31T12:53:41.203Z,7.53
2019-03-31T12:56:10.695Z,8.40
2019-03-31T12:58:45.860Z,8.80
2019-03-31T13:01:21.087Z,8.88
2019-03-31T13:03:50.578Z,8.80
2019-03-31T13:06:20.507Z,7.65
2019-03-31T13:08:49.978Z,7.60
2019-03-31T13:11:19.518Z,8.00
2019-03-31T13:13:49.065Z,8.08
2019-03-31T13:16:18.521Z,7.03
2019-03-31T13:18:47.999Z,7.97
2019-03-31T13:21:17.674Z,9.33
2019-03-31T13:23:47.175Z,7.55
2019-03-31T13:26:18.184Z,7.12
2019-03-31T13:28:47.762Z,8.78
2019-03-31T13:31:17.267Z,7.08
2019-03-31T13:33:46.772Z,5.45
2019-03-31T13:36:23.685Z,7.58
2019-03-31T13:38:53.176Z,5.97
2019-03-31T13:41:22.677Z,8.50
2019-03-31T13:43:52.195Z,10.15
2019-03-31T13:46:21.686Z,7.78
2019-03-31T13:48:51.102Z,6.35
2019-03-31T13:51:20.695Z,8.30
2019-03-31T13:53:50.201Z,7.47
2019-03-31T13:56:20.123Z,7.35
2019-03-31T13:58:52.621Z,6.30
2019-03-31T14:01:21.121Z,7.97
2019-03-31T14:03:50.746Z,5.35
2019-03-31T14:06:20.487Z,5.60
2019-03-31T14:08:49.996Z,5.95
2019-03-31T14:11:21.603Z,6.60
2019-03-31T14:13:50.795Z,7.28
2019-03-31T14:16:20.261Z,4.97
2019-03-31T14:18:49.828Z,4.70
2019-03-31T14:21:20.639Z,5.65
2019-03-31T14:23:50.134Z,6.22
2019-03-31T14:26:19.620Z,5.85
2019-03-31T14:28:49.188Z,8.30
2019-03-31T14:31:18.717Z,7.80
2019-03-31T14:33:48.188Z,6.00
2019-03-31T14:36:19.189Z,8.55
2019-03-31T14:38:48.837Z,6.80
2019-03-31T14:41:18.306Z,7.67
2019-03-31T14:43:47.808Z,6.30
2019-03-31T14:46:19.595Z,6.42
2019-03-31T14:48:48.486Z,7.60
2019-03-31T14:51:18.038Z,9.73
2019-03-31T14:53:47.586Z,5.00
2019-03-31T14:56:17.071Z,6.05
2019-03-31T14:58:46.600Z,5.10
2019-03-31T15:01:16.262Z,5.45
2019-03-31T15:03:45.733Z,6.67
2019-03-31T15:06:15.313Z,8.95
2019-03-31T15:08:54.167Z,6.17
2019-03-31T15:11:22.279Z,6.03
2019-03-31T15:13:54.845Z,5.60
2019-03-31T15:16:24.354Z,6.40
2019-03-31T15:18:53.830Z,7.10
2019-03-31T15:21:23.361Z,5.22
2019-03-31T15:23:52.874Z,4.42
2019-03-31T15:26:23.862Z,7.30
2019-03-31T15:28:53.336Z,5.95
2019-03-31T15:31:22.985Z,5.17
2019-03-31T15:33:52.461Z,5.90
2019-03-31T15:36:21.985Z,6.03
2019-03-31T15:38:51.558Z,5.30
2019-03-31T15:41:21.607Z,7.15
2019-03-31T15:44:10.542Z,5.85
2019-03-31T15:46:39.997Z,6.45
2019-03-31T15:49:09.498Z,6.03
2019-03-31T15:51:38.999Z,6.67
2019-03-31T15:54:08.458Z,7.50
2019-03-31T15:56:38.032Z,5.60
2019-03-31T15:59:07.523Z,5.78
2019-03-31T16:01:37.021Z,7.05
2019-03-31T16:04:06.509Z,7.25
2019-03-31T16:06:36.445Z,5.35
2019-03-31T16:09:22.397Z,4.58
2019-03-31T16:11:52.905Z,5.25
2019-03-31T16:14:10.577Z,6.87
2019-03-31T16:16:40.046Z,6.37
2019-03-31T16:19:09.516Z,7.95
2019-03-31T16:21:39.104Z,6.62
2019-03-31T16:24:08.607Z,7.30
2019-03-31T16:26:38.094Z,6.35
2019-03-31T16:29:07.660Z,6.78
2019-03-31T16:31:37.150Z,5.33
2019-03-31T16:34:06.622Z,5.58
2019-03-31T16:36:36.236Z,5.80
2019-03-31T16:39:07.403Z,7.40
2019-03-31T16:41:36.861Z,10.95
2019-03-31T16:44:06.379Z,13.30
2019-03-31T16:46:35.858Z,10.32
2019-03-31T16:49:11.383Z,14.43
2019-03-31T16:51:40.929Z,13.88
2019-03-31T16:54:10.662Z,13.00
2019-03-31T16:56:40.153Z,14.18
2019-03-31T16:59:11.203Z,13.50
2019-03-31T17:01:40.692Z,14.20
2019-03-31T17:04:10.152Z,15.23
2019-03-31T17:06:39.646Z,14.40
2019-03-31T17:09:16.824Z,14.70
2019-03-31T17:11:46.348Z,15.43
2019-03-31T17:14:16.185Z,14.25
2019-03-31T17:16:45.684Z,15.15
2019-03-31T17:19:15.454Z,22.52
2019-03-31T17:21:44.979Z,19.17
2019-03-31T17:24:14.476Z,24.75
2019-03-31T17:27:03.328Z,27.07
2019-03-31T17:29:32.833Z,24.20
2019-03-31T17:32:02.291Z,28.87
2019-03-31T17:34:32.041Z,28.35
2019-03-31T17:37:01.553Z,32.15
2019-03-31T17:39:31.035Z,30.23
2019-03-31T17:42:00.563Z,32.80
2019-03-31T17:44:30.069Z,27.07
2019-03-31T17:46:59.527Z,30.17
2019-03-31T17:49:29.019Z,32.38
2019-03-31T17:52:01.058Z,28.65
2019-03-31T17:54:29.708Z,28.62
2019-03-31T17:56:59.492Z,32.35
2019-03-31T17:59:31.643Z,30.08
2019-03-31T18:02:01.132Z,30.30
2019-03-31T18:04:32.130Z,27.42
2019-03-31T18:07:20.952Z,32.28
2019-03-31T18:09:50.433Z,29.50
2019-03-31T18:12:19.938Z,29.70
2019-03-31T18:14:49.439Z,30.17
2019-03-31T18:17:18.965Z,31.60
2019-03-31T18:19:48.471Z,30.02
2019-03-31T18:22:18.020Z,29.57
2019-03-31T18:24:47.524Z,31.57
2019-03-31T18:27:17.025Z,32.78
2019-03-31T18:29:46.504Z,32.33
2019-03-31T18:32:16.020Z,31.75
2019-03-31T18:34:45.520Z,32.45
2019-03-31T18:37:15.017Z,33.58
2019-03-31T18:39:44.765Z,35.70
2019-03-31T18:42:14.239Z,30.43
2019-03-31T18:44:43.751Z,33.75
2019-03-31T18:47:13.296Z,40.30
2019-03-31T18:49:42.803Z,37.25
2019-03-31T18:52:12.333Z,32.48
2019-03-31T18:54:43.504Z,39.55
2019-03-31T18:57:14.610Z,40.45
2019-03-31T18:59:46.944Z,39.95
2019-03-31T19:02:37.664Z,39.47
2019-03-31T19:05:09.905Z,43.57
2019-03-31T19:07:41.030Z,43.83
2019-03-31T19:10:24.197Z,43.33
2019-03-31T19:12:45.410Z,42.67
2019-03-31T19:15:35.869Z,42.43
2019-03-31T19:18:07.104Z,43.42
2019-03-31T19:20:38.430Z,43.50
2019-03-31T19:23:10.074Z,40.12
2019-03-31T19:25:41.181Z,43.98
2019-03-31T19:28:12.303Z,42.58
2019-03-31T19:30:43.690Z,45.60
2019-03-31T19:33:14.773Z,43.57
2019-03-31T19:35:47.675Z,44.48
2019-03-31T19:38:18.779Z,43.90
2019-03-31T19:41:03.419Z,44.80
2019-03-31T19:43:22.713Z,47.43
2019-03-31T19:45:53.849Z,44.55
2019-03-31T19:48:24.957Z,45.48
2019-03-31T19:50:56.070Z,44.83
2019-03-31T19:53:46.528Z,44.35
2019-03-31T19:56:17.675Z,43.13
2019-03-31T19:58:48.800Z,41.97
2019-03-31T20:01:19.944Z,44.17
2019-03-31T20:04:10.357Z,41.53
2019-03-31T20:06:41.486Z,40.08
2019-03-31T20:09:12.685Z,45.30
2019-03-31T20:11:43.765Z,40.87
2019-03-31T20:14:14.912Z,40.60
2019-03-31T20:16:46.020Z,36.48
2019-03-31T20:19:17.164Z,38.13
2019-03-31T20:21:48.273Z,35.70
2019-03-31T20:24:19.366Z,33.10
2019-03-31T20:26:50.494Z,33.90
2019-03-31T20:29:21.606Z,37.97
2019-03-31T20:31:52.712Z,33.83
2019-03-31T20:34:23.788Z,35.33
2019-03-31T20:36:55.322Z,31.50
2019-03-31T20:39:56.659Z,32.65
2019-03-31T20:42:38.159Z,32.27
2019-03-31T20:45:27.030Z,33.60
2019-03-31T20:47:56.550Z,34.33
2019-03-31T20:50:26.222Z,31.20
2019-03-31T20:52:55.703Z,29.00
2019-03-31T20:55:25.234Z,28.37
2019-03-31T20:57:54.700Z,29.47
2019-03-31T21:00:24.276Z,28.83
2019-03-31T21:02:53.963Z,29.33
2019-03-31T21:05:23.458Z,26.13
2019-03-31T21:07:52.957Z,28.13
2019-03-31T21:10:22.571Z,28.57
2019-03-31T21:13:11.355Z,29.20
2019-03-31T21:15:40.839Z,30.23
2019-03-31T21:18:10.312Z,30.47
2019-03-31T21:20:39.836Z,27.47
2019-03-31T21:23:09.376Z,27.93
2019-03-31T21:25:38.949Z,27.53
2019-03-31T21:28:14.270Z,27.10
2019-03-31T21:30:43.796Z,26.50
2019-03-31T21:33:22.020Z,27.83
2019-03-31T21:35:51.530Z,24.27
2019-03-31T21:38:21.010Z,24.63
2019-03-31T21:40:50.519Z,27.27
2019-03-31T21:43:20.032Z,23.73
2019-03-31T21:45:49.532Z,24.53
2019-03-31T21:48:19.035Z,26.17
2019-03-31T21:50:48.543Z,24.87
2019-03-31T21:53:18.027Z,26.57
2019-03-31T21:55:47.659Z,24.93
2019-03-31T21:58:17.155Z,29.97
2019-03-31T22:00:48.297Z,25.33
2019-03-31T22:03:17.759Z,25.10
2019-03-31T22:05:47.374Z,25.23
2019-03-31T22:08:17.090Z,25.87
2019-03-31T22:10:46.658Z,23.30
2019-03-31T22:13:16.151Z,24.97
2019-03-31T22:15:45.811Z,24.60
2019-03-31T22:18:15.277Z,26.70
2019-03-31T22:20:47.232Z,22.47
2019-03-31T22:23:16.050Z,25.77
2019-03-31T22:25:45.809Z,24.70
2019-03-31T22:28:15.296Z,24.43
2019-03-31T22:30:44.758Z,24.03
2019-03-31T22:33:14.245Z,24.53
2019-03-31T22:35:45.382Z,21.90
2019-03-31T22:38:14.877Z,25.27
2019-03-31T22:40:44.352Z,26.00
2019-03-31T22:43:14.006Z,25.33
2019-03-31T22:45:43.483Z,21.87
2019-03-31T22:48:12.902Z,25.50
2019-03-31T22:50:42.391Z,28.77
2019-03-31T22:53:11.875Z,26.70
2019-03-31T22:55:41.344Z,26.60
2019-03-31T22:58:10.887Z,26.93
2019-03-31T23:00:40.374Z,24.73
2019-03-31T23:03:09.825Z,26.43
2019-03-31T23:05:39.330Z,23.50
2019-03-31T23:08:14.848Z,24.13
2019-03-31T23:10:44.351Z,26.33
2019-03-31T23:13:15.054Z,29.37
2019-03-31T23:15:44.519Z,27.10
2019-03-31T23:18:19.988Z,26.03
2019-03-31T23:20:49.493Z,24.30
2019-03-31T23:23:24.909Z,26.00
2019-03-31T23:25:54.544Z,26.40
2019-03-31T23:28:24.020Z,23.93
2019-03-31T23:30:53.496Z,22.83
2019-03-31T23:33:23.033Z,24.07
2019-03-31T23:35:52.481Z,30.10
2019-03-31T23:38:21.969Z,28.33
2019-03-31T23:40:51.475Z,28.30
2019-03-31T23:43:20.946Z,26.37
2019-03-31T23:45:50.416Z,29.10
2019-03-31T23:48:21.818Z,27.47
2019-03-31T23:51:10.579Z,29.03
2019-03-31T23:53:40.101Z,26.20
2019-03-31T23:56:11.099Z,27.83
2019-03-31T23:58:40.590Z,27.03
